Time;durP1;ratioP1;P1;durP2;ratioP2;P2;SDS_P1;SDS_P2;PMS_P1;PMS_P2;Temp;Humidity;BMP_temperature;BMP_pressure;BME280_temperature;BME280_humidity;BME280_pressure;Samples;Min_cycle;Max_cycle;Signal;HPM_P1;HPM_P2
2021/09/07 00:00:16;;;;;;;2.08;1.90;;;22.70;47.00;;;;;;4783908;30;20136;-70
2021/09/07 00:03:16;;;;;;;2.25;2.08;;;22.70;47.00;;;;;;4774111;29;20047;-68
2021/09/07 00:05:43;;;;;;;1.80;1.70;;;22.70;47.00;;;;;;4784228;29;20135;-72
2021/09/07 00:08:10;;;;;;;2.28;2.08;;;22.70;47.00;;;;;;4784315;29;20055;-72
2021/09/07 00:10:37;;;;;;;2.17;1.88;;;22.70;47.00;;;;;;4783431;30;20119;-72
2021/09/07 00:13:04;;;;;;;3.33;2.35;;;22.70;47.10;;;;;;4772898;29;20108;-69
2021/09/07 00:15:31;;;;;;;2.72;2.40;;;22.70;47.10;;;;;;4783438;29;20138;-72
2021/09/07 00:17:58;;;;;;;2.15;1.95;;;22.70;47.10;;;;;;4784606;29;20044;-72
2021/09/07 00:20:25;;;;;;;1.98;1.80;;;22.70;47.10;;;;;;4783578;29;20092;-72
2021/09/07 00:22:52;;;;;;;2.47;2.28;;;22.60;47.00;;;;;;4776734;29;20063;-69
2021/09/07 00:25:20;;;;;;;3.03;2.28;;;22.60;47.10;;;;;;4778969;30;20051;-72
2021/09/07 00:27:49;;;;;;;2.80;2.47;;;22.70;47.20;;;;;;4783889;29;20090;-72
2021/09/07 00:30:16;;;;;;;2.10;1.90;;;22.60;47.20;;;;;;4784503;29;20055;-68
2021/09/07 00:32:44;;;;;;;2.88;2.10;;;22.60;47.20;;;;;;4774990;29;20708;-68
2021/09/07 00:35:12;;;;;;;2.38;2.17;;;22.70;47.30;;;;;;4779486;29;20243;-71
2021/09/07 00:37:40;;;;;;;2.30;2.10;;;22.60;47.20;;;;;;4784381;29;20047;-69
2021/09/07 00:40:09;;;;;;;2.92;2.22;;;22.60;47.20;;;;;;4783899;29;20147;-71
2021/09/07 00:42:37;;;;;;;2.72;2.10;;;22.60;47.30;;;;;;4776886;29;20058;-68
2021/09/07 00:45:07;;;;;;;2.60;2.00;;;22.60;47.30;;;;;;4779899;30;20143;-68
2021/09/07 00:47:35;;;;;;;2.75;1.90;;;22.60;47.30;;;;;;4784596;29;20059;-71
2021/09/07 00:50:02;;;;;;;2.50;2.30;;;22.60;47.30;;;;;;4782382;29;20154;-71
2021/09/07 00:52:30;;;;;;;2.30;2.10;;;22.60;47.30;;;;;;4775806;29;20151;-71
2021/09/07 00:54:59;;;;;;;2.90;2.60;;;22.60;47.30;;;;;;4778523;29;20062;-71
2021/09/07 00:57:27;;;;;;;2.78;2.10;;;22.60;47.40;;;;;;4783303;30;20082;-71
2021/09/07 00:59:54;;;;;;;2.63;2.38;;;22.50;47.30;;;;;;4783799;29;20134;-68
2021/09/07 01:02:22;;;;;;;2.55;2.35;;;22.50;47.30;;;;;;4776184;29;20090;-71
2021/09/07 01:04:50;;;;;;;2.33;2.13;;;22.60;47.40;;;;;;4779837;29;20083;-71
2021/09/07 01:07:18;;;;;;;2.10;1.90;;;22.50;47.30;;;;;;4783319;30;20055;-71
2021/09/07 01:09:45;;;;;;;2.58;2.20;;;22.50;47.30;;;;;;4784451;29;20135;-71
2021/09/07 01:12:13;;;;;;;3.10;1.90;;;22.50;47.30;;;;;;4781696;29;20123;-69
2021/09/07 01:14:41;;;;;;;3.45;2.90;;;22.50;47.30;;;;;;4777619;29;20142;-68
2021/09/07 01:17:17;;;;;;;3.42;2.53;;;22.60;47.30;;;;;;4784043;29;20057;-71
2021/09/07 01:19:47;;;;;;;3.08;2.40;;;22.50;47.30;;;;;;4783015;29;20080;-71
2021/09/07 01:22:16;;;;;;;4.90;2.53;;;22.50;47.30;;;;;;4776785;29;20052;-68
2021/09/07 01:24:43;;;;;;;2.33;2.13;;;22.60;47.30;;;;;;4779202;29;20370;-71
2021/09/07 01:27:11;;;;;;;2.50;2.28;;;22.60;47.30;;;;;;4781919;30;20525;-71
2021/09/07 01:29:40;;;;;;;2.58;2.20;;;22.60;47.30;;;;;;4783299;29;20065;-71
2021/09/07 01:32:10;;;;;;;2.80;2.33;;;22.50;47.30;;;;;;4779760;29;20069;-68
2021/09/07 01:34:39;;;;;;;2.83;1.92;;;22.60;47.90;;;;;;4775236;29;20055;-71
2021/09/07 01:37:07;;;;;;;3.03;2.28;;;22.60;47.30;;;;;;4783349;29;20091;-71
2021/09/07 01:39:36;;;;;;;2.75;2.20;;;22.60;47.30;;;;;;4783185;29;20104;-71
2021/09/07 01:42:05;;;;;;;2.45;2.25;;;22.60;47.40;;;;;;4778195;29;20094;-69
2021/09/07 01:44:32;;;;;;;3.15;2.28;;;22.50;47.30;;;;;;4776984;29;20079;-69
2021/09/07 01:47:00;;;;;;;2.30;2.10;;;22.50;47.40;;;;;;4782485;29;20055;-71
2021/09/07 01:49:28;;;;;;;2.63;2.20;;;22.50;47.30;;;;;;4782807;29;20090;-71
2021/09/07 01:51:55;;;;;;;2.33;1.95;;;22.50;47.40;;;;;;4777294;29;20087;-67
2021/09/07 01:54:22;;;;;;;2.35;1.95;;;22.50;47.40;;;;;;4776414;29;20051;-72
2021/09/07 01:56:49;;;;;;;2.35;2.13;;;22.50;47.40;;;;;;4782840;29;20154;-71
2021/09/07 01:59:17;;;;;;;2.33;2.13;;;22.50;47.40;;;;;;4783239;29;20131;-71
2021/09/07 02:01:44;;;;;;;2.47;2.28;;;22.50;47.50;;;;;;4778730;29;20769;-72
2021/09/07 02:04:12;;;;;;;2.50;2.15;;;22.40;47.50;;;;;;4775240;29;20051;-71
2021/09/07 02:06:39;;;;;;;2.70;2.10;;;22.50;47.60;;;;;;4782671;29;20134;-72
2021/09/07 02:09:06;;;;;;;2.30;2.10;;;22.40;47.50;;;;;;4783240;29;20556;-72
2021/09/07 02:11:33;;;;;;;2.63;2.35;;;22.40;47.60;;;;;;4782394;29;20069;-68
2021/09/07 02:14:01;;;;;;;4.85;2.22;;;22.40;47.60;;;;;;4779669;29;20135;-71
2021/09/07 02:16:28;;;;;;;2.60;2.40;;;22.50;47.60;;;;;;4785877;29;20071;-72
2021/09/07 02:18:55;;;;;;;2.15;1.95;;;22.40;47.60;;;;;;4786878;29;20058;-71
2021/09/07 02:21:46;;;;;;;2.72;2.47;;;22.40;47.60;;;;;;4784446;29;20450;-68
2021/09/07 02:24:14;;;;;;;3.28;2.55;;;22.40;47.60;;;;;;4779391;29;20143;-71
2021/09/07 02:26:42;;;;;;;3.15;2.70;;;22.40;47.60;;;;;;4784522;30;20558;-71
2021/09/07 02:29:10;;;;;;;2.75;1.98;;;22.40;47.60;;;;;;4786469;29;20139;-71
2021/09/07 02:31:37;;;;;;;2.45;2.13;;;22.40;47.60;;;;;;4783438;29;20055;-69
2021/09/07 02:34:04;;;;;;;2.42;2.22;;;22.40;47.60;;;;;;4775476;29;20055;-72
2021/09/07 02:36:31;;;;;;;2.60;2.28;;;22.40;47.70;;;;;;4786261;29;20507;-72
2021/09/07 02:38:58;;;;;;;2.63;2.33;;;22.40;47.70;;;;;;4786051;29;20506;-72
2021/09/07 02:41:26;;;;;;;3.05;2.25;;;22.40;47.70;;;;;;4783849;29;20138;-68
2021/09/07 02:43:53;;;;;;;2.67;2.10;;;22.40;47.70;;;;;;4775530;29;20079;-73
2021/09/07 02:46:20;;;;;;;2.70;2.20;;;22.40;47.60;;;;;;4786035;29;20111;-72
2021/09/07 02:48:47;;;;;;;3.03;2.25;;;22.40;47.60;;;;;;4786073;29;20074;-72
2021/09/07 02:51:14;;;;;;;2.35;2.00;;;22.40;47.60;;;;;;4785050;29;20051;-69
2021/09/07 02:53:41;;;;;;;3.22;2.25;;;22.40;47.60;;;;;;4778084;29;20090;-72
2021/09/07 02:56:13;;;;;;;2.45;2.10;;;22.40;47.60;;;;;;4784754;29;20093;-70
2021/09/07 02:58:40;;;;;;;2.63;2.20;;;22.40;47.60;;;;;;4786326;29;20770;-72
2021/09/07 03:01:08;;;;;;;3.17;2.20;;;22.40;47.60;;;;;;4785408;29;20059;-72
2021/09/07 03:03:36;;;;;;;2.42;2.22;;;22.40;47.60;;;;;;4774996;29;20055;-69
2021/09/07 03:06:04;;;;;;;2.15;1.95;;;22.40;47.60;;;;;;4785812;29;20055;-72
2021/09/07 03:08:32;;;;;;;2.50;2.08;;;22.40;47.60;;;;;;4785454;29;20059;-72
2021/09/07 03:10:59;;;;;;;2.20;2.10;;;22.40;47.60;;;;;;4784655;30;20055;-72
2021/09/07 03:13:27;;;;;;;9.93;2.40;;;22.40;47.60;;;;;;4778611;29;20466;-72
2021/09/07 03:15:54;;;;;;;2.13;1.92;;;22.40;47.60;;;;;;4796242;29;20714;-72
2021/09/07 03:18:21;;;;;;;2.60;2.22;;;22.40;47.50;;;;;;4788908;29;20051;-72
2021/09/07 03:20:48;;;;;;;2.28;2.00;;;22.40;47.60;;;;;;4789753;29;20506;-72
2021/09/07 03:23:16;;;;;;;2.38;2.17;;;22.40;47.60;;;;;;4776497;29;20055;-72
2021/09/07 03:25:43;;;;;;;2.80;2.08;;;22.40;47.50;;;;;;4782634;29;20502;-69
2021/09/07 03:28:10;;;;;;;2.13;1.90;;;22.40;47.50;;;;;;4785214;29;20095;-72
2021/09/07 03:30:37;;;;;;;2.85;2.22;;;22.40;47.50;;;;;;4785419;29;20082;-68
2021/09/07 03:33:05;;;;;;;1.95;1.73;;;22.40;47.50;;;;;;4775088;29;20087;-72
2021/09/07 03:35:32;;;;;;;3.05;2.53;;;22.40;47.50;;;;;;4782304;29;20158;-72
2021/09/07 03:37:59;;;;;;;3.35;2.00;;;22.40;47.50;;;;;;4788136;29;20054;-72
2021/09/07 03:40:26;;;;;;;2.40;2.10;;;22.40;47.60;;;;;;4788441;29;20125;-71
2021/09/07 03:42:53;;;;;;;2.38;2.00;;;22.40;47.60;;;;;;4784375;29;20057;-71
2021/09/07 03:45:21;;;;;;;2.42;1.95;;;22.30;47.60;;;;;;4788926;29;20081;-69
2021/09/07 03:47:48;;;;;;;3.22;2.53;;;22.30;47.70;;;;;;4788369;29;20134;-68
2021/09/07 03:50:15;;;;;;;2.72;1.63;;;22.30;47.80;;;;;;4788555;29;20047;-72
2021/09/07 03:52:43;;;;;;;2.47;2.13;;;22.30;47.80;;;;;;4785470;29;20496;-69
2021/09/07 03:55:10;;;;;;;3.08;2.47;;;22.30;47.90;;;;;;4785017;29;20126;-72
2021/09/07 03:57:38;;;;;;;2.45;2.20;;;22.30;47.90;;;;;;4784288;29;20507;-72
2021/09/07 04:00:06;;;;;;;2.40;2.20;;;22.30;48.50;;;;;;4789510;29;20420;-72
2021/09/07 04:06:10;;;;;;;2.17;1.98;;;22.30;48.10;;;;;;4768002;30;20086;-72
2021/09/07 04:08:37;;;;;;;4.38;2.17;;;22.30;48.00;;;;;;4769030;30;20502;-72
2021/09/07 04:11:04;;;;;;;2.42;2.08;;;22.30;48.00;;;;;;4766355;29;20518;-72
2021/09/07 04:13:31;;;;;;;2.70;2.33;;;22.30;48.10;;;;;;4777338;30;20134;-71
2021/09/07 04:15:58;;;;;;;2.92;2.47;;;22.30;48.10;;;;;;4782507;29;20636;-71
2021/09/07 04:18:26;;;;;;;1.95;1.75;;;22.30;48.10;;;;;;4782470;29;20517;-71
2021/09/07 04:20:53;;;;;;;2.38;2.05;;;22.30;48.10;;;;;;4784351;29;20158;-72
2021/09/07 04:23:20;;;;;;;2.35;2.13;;;22.30;48.20;;;;;;4789611;29;20484;-72
2021/09/07 04:25:48;;;;;;;2.75;1.92;;;22.30;48.70;;;;;;4782329;29;20047;-72
2021/09/07 04:28:16;;;;;;;3.75;2.72;;;22.30;48.20;;;;;;4784297;29;20134;-71
2021/09/07 04:30:43;;;;;;;2.17;1.90;;;22.30;48.20;;;;;;4783924;29;20062;-68
2021/09/07 04:33:11;;;;;;;2.08;1.90;;;22.30;48.20;;;;;;4787453;29;20730;-68
2021/09/07 04:35:38;;;;;;;4.05;2.22;;;22.30;48.20;;;;;;4781948;29;20063;-71
2021/09/07 04:38:05;;;;;;;4.03;2.13;;;22.30;48.20;;;;;;4783435;29;20146;-71
2021/09/07 04:40:32;;;;;;;3.20;2.38;;;22.40;48.20;;;;;;4797397;29;20078;-71
2021/09/07 04:43:00;;;;;;;4.35;1.98;;;22.30;48.10;;;;;;4773265;29;20051;-68
2021/09/07 04:45:27;;;;;;;2.90;2.25;;;22.40;48.10;;;;;;4783016;29;20550;-69
2021/09/07 04:47:54;;;;;;;3.30;2.83;;;22.40;48.10;;;;;;4784126;29;20134;-69
2021/09/07 04:50:21;;;;;;;3.90;2.40;;;22.40;48.10;;;;;;4782977;29;20146;-71
2021/09/07 04:52:48;;;;;;;3.03;2.50;;;22.40;48.10;;;;;;4773867;29;20049;-68
2021/09/07 04:55:15;;;;;;;2.70;2.47;;;22.40;48.10;;;;;;4788859;29;20167;-72
2021/09/07 04:57:42;;;;;;;2.30;2.10;;;22.50;48.00;;;;;;4788580;29;20082;-72
2021/09/07 05:00:10;;;;;;;4.32;2.60;;;22.50;48.00;;;;;;4796970;29;20138;-72
2021/09/07 05:02:42;;;;;;;5.53;3.05;;;22.50;47.90;;;;;;4777784;30;20065;-70
2021/09/07 05:05:10;;;;;;;4.30;2.25;;;22.50;47.90;;;;;;4778807;29;20537;-73
2021/09/07 05:07:38;;;;;;;6.75;3.20;;;22.50;47.80;;;;;;4783656;29;20082;-72
2021/09/07 05:10:06;;;;;;;3.30;2.78;;;22.50;47.60;;;;;;4782945;29;20047;-72
2021/09/07 05:12:33;;;;;;;3.65;2.75;;;22.50;47.40;;;;;;4779392;29;20051;-71
2021/09/07 05:15:06;;;;;;;3.97;2.60;;;22.50;47.30;;;;;;4779213;29;20100;-72
2021/09/07 05:17:34;;;;;;;6.55;2.95;;;22.60;47.20;;;;;;4782897;29;20563;-72
2021/09/07 05:20:02;;;;;;;4.22;3.08;;;22.60;47.10;;;;;;4787176;29;20746;-71
2021/09/07 05:22:30;;;;;;;3.65;2.72;;;22.60;47.20;;;;;;4777149;29;20083;-70
2021/09/07 05:24:57;;;;;;;3.45;2.80;;;22.60;47.50;;;;;;4799495;29;20390;-70
2021/09/07 05:27:24;;;;;;;5.60;2.90;;;22.60;47.60;;;;;;4809036;29;20577;-69
2021/09/07 05:29:51;;;;;;;6.03;2.85;;;22.60;47.60;;;;;;4808818;29;20051;-71
2021/09/07 05:32:21;;;;;;;4.30;2.58;;;22.60;47.60;;;;;;4808750;29;20061;-68
2021/09/07 05:34:48;;;;;;;7.60;3.20;;;22.60;47.50;;;;;;4808855;29;20051;-74
2021/09/07 05:37:15;;;;;;;4.47;2.90;;;22.70;47.40;;;;;;4809095;29;20058;-69
2021/09/07 05:39:42;;;;;;;7.20;2.65;;;22.70;47.40;;;;;;4810225;29;20089;-69
2021/09/07 05:42:09;;;;;;;3.63;2.80;;;22.70;47.30;;;;;;4807776;29;20090;-66
2021/09/07 05:44:37;;;;;;;5.85;3.53;;;22.80;47.40;;;;;;4808891;29;20051;-71
2021/09/07 05:47:05;;;;;;;3.05;2.60;;;22.80;47.30;;;;;;4808992;29;20059;-67
2021/09/07 05:49:32;;;;;;;3.92;2.92;;;22.80;47.10;;;;;;4810449;29;20072;-71
2021/09/07 05:52:00;;;;;;;3.83;3.45;;;22.80;46.70;;;;;;4809832;29;20138;-73
2021/09/07 05:54:27;;;;;;;5.13;3.72;;;22.90;46.40;;;;;;4809064;29;20103;-68
2021/09/07 05:56:57;;;;;;;10.63;3.53;;;22.90;46.10;;;;;;4808910;29;20055;-67
2021/09/07 05:59:25;;;;;;;7.65;4.18;;;22.90;45.70;;;;;;4808164;29;20129;-67
2021/09/07 06:01:53;;;;;;;7.82;4.43;;;22.90;45.50;;;;;;4808678;29;20051;-66
2021/09/07 06:04:20;;;;;;;8.48;5.38;;;22.90;45.40;;;;;;4808552;29;20075;-70
2021/09/07 06:06:47;;;;;;;8.98;5.68;;;22.90;45.40;;;;;;4778115;29;20051;-68
2021/09/07 06:09:14;;;;;;;9.55;5.68;;;22.90;45.50;;;;;;4764708;30;20043;-68
2021/09/07 06:11:50;;;;;;;8.52;5.60;;;23.00;45.60;;;;;;4780938;29;20105;-68
2021/09/07 06:14:17;;;;;;;8.40;5.50;;;23.00;45.60;;;;;;4774588;29;20224;-67
2021/09/07 06:16:44;;;;;;;9.18;6.35;;;23.00;45.60;;;;;;4781706;29;20136;-70
2021/09/07 06:19:11;;;;;;;13.27;6.05;;;23.00;45.50;;;;;;4785776;29;20138;-69
2021/09/07 06:22:14;;;;;;;13.15;5.65;;;23.00;45.60;;;;;;4779692;29;20143;-69
2021/09/07 06:24:42;;;;;;;10.35;5.65;;;23.10;45.70;;;;;;4772676;29;20051;-69
2021/09/07 06:27:09;;;;;;;7.57;5.28;;;23.10;45.70;;;;;;4781907;29;20087;-69
2021/09/07 06:29:36;;;;;;;8.48;4.97;;;23.20;45.70;;;;;;4782970;29;20047;-69
2021/09/07 06:32:04;;;;;;;10.10;5.18;;;23.10;45.60;;;;;;4785987;29;20055;-68
2021/09/07 06:38:15;;;;;;;14.10;5.72;;;23.20;45.60;;;;;;4781210;29;20055;-67
2021/09/07 06:40:43;;;;;;;8.80;5.15;;;23.20;45.70;;;;;;4788301;29;20116;-69
2021/09/07 06:43:11;;;;;;;7.25;4.53;;;23.30;45.80;;;;;;4781079;29;20070;-68
2021/09/07 06:45:39;;;;;;;5.30;4.45;;;23.30;45.70;;;;;;4794275;30;20051;-69
2021/09/07 06:48:06;;;;;;;6.50;4.93;;;23.30;45.70;;;;;;4790662;29;20097;-70
2021/09/07 06:50:33;;;;;;;8.35;4.85;;;23.30;45.80;;;;;;4789965;29;20094;-72
2021/09/07 06:53:00;;;;;;;8.00;4.88;;;23.30;45.70;;;;;;4791005;29;20062;-70
2021/09/07 06:55:27;;;;;;;8.98;5.13;;;23.30;45.70;;;;;;4790659;29;20047;-75
2021/09/07 06:57:54;;;;;;;7.18;4.82;;;23.40;45.70;;;;;;4794008;29;20059;-73
2021/09/07 07:00:22;;;;;;;7.35;4.97;;;23.40;45.70;;;;;;4795150;29;20172;-73
2021/09/07 07:02:49;;;;;;;8.80;4.75;;;23.40;45.60;;;;;;4793894;29;20110;-73
2021/09/07 07:05:17;;;;;;;5.93;4.50;;;23.40;45.50;;;;;;4789550;29;20039;-75
2021/09/07 07:07:44;;;;;;;8.93;4.68;;;23.50;45.50;;;;;;4785630;29;20091;-77
2021/09/07 07:10:11;;;;;;;7.38;5.45;;;23.50;45.40;;;;;;4774209;29;20093;-68
2021/09/07 07:12:38;;;;;;;8.57;5.22;;;23.50;45.30;;;;;;4780968;29;20561;-64
2021/09/07 07:18:47;;;;;;;10.13;5.05;;;23.50;45.40;;;;;;4795153;29;20082;-72
2021/09/07 07:21:14;;;;;;;11.40;4.97;;;23.60;45.60;;;;;;4793271;29;20058;-76
2021/09/07 07:23:41;;;;;;;7.80;4.50;;;23.60;45.60;;;;;;4793223;29;20093;-73
2021/09/07 07:26:08;;;;;;;6.95;3.92;;;23.60;45.60;;;;;;4795031;30;20152;-73
2021/09/07 07:28:36;;;;;;;7.32;4.70;;;23.70;45.60;;;;;;4792836;29;20150;-76
2021/09/07 07:31:03;;;;;;;10.20;4.72;;;23.70;45.50;;;;;;4792782;29;20048;-74
2021/09/07 07:33:30;;;;;;;5.32;4.15;;;23.80;45.50;;;;;;4792819;29;20557;-75
2021/09/07 07:35:57;;;;;;;7.18;4.38;;;23.80;45.30;;;;;;4793084;29;20134;-75
2021/09/07 07:38:24;;;;;;;7.05;4.45;;;23.80;45.20;;;;;;4791464;30;20077;-70
2021/09/07 07:40:51;;;;;;;8.65;4.55;;;23.80;45.00;;;;;;4792900;29;20078;-70
2021/09/07 07:43:23;;;;;;;4.57;3.45;;;23.80;45.00;;;;;;4793421;29;20504;-70
2021/09/07 07:45:51;;;;;;;6.47;4.00;;;23.90;45.20;;;;;;4797970;29;20062;-73
2021/09/07 07:48:18;;;;;;;6.55;4.57;;;23.90;45.40;;;;;;4793327;29;20055;-74
2021/09/07 07:50:45;;;;;;;6.95;4.30;;;23.90;45.40;;;;;;4793505;29;20494;-73
2021/09/07 07:53:13;;;;;;;5.57;4.30;;;23.90;45.40;;;;;;4792539;29;20055;-75
2021/09/07 07:55:40;;;;;;;8.07;4.05;;;24.00;45.40;;;;;;4791212;30;20094;-76
2021/09/07 07:58:23;;;;;;;6.80;3.42;;;24.00;45.40;;;;;;4791563;29;20079;-76
2021/09/07 08:00:50;;;;;;;7.85;4.53;;;24.00;45.40;;;;;;4792376;29;20138;-84
2021/09/07 08:03:17;;;;;;;8.45;4.43;;;24.00;45.40;;;;;;4791866;29;20063;-80
2021/09/07 08:05:45;;;;;;;6.82;4.57;;;24.10;45.40;;;;;;4791431;30;20051;-80
2021/09/07 08:08:12;;;;;;;4.32;3.63;;;24.10;45.40;;;;;;4791516;29;20146;-71
2021/09/07 08:10:39;;;;;;;5.78;4.00;;;24.10;45.30;;;;;;4792930;29;20135;-74
2021/09/07 08:13:07;;;;;;;4.97;4.00;;;24.10;45.30;;;;;;4793163;29;20055;-69
2021/09/07 08:15:35;;;;;;;5.35;4.10;;;24.10;45.40;;;;;;4793266;29;20485;-71
2021/09/07 08:18:03;;;;;;;6.30;4.05;;;24.10;45.40;;;;;;4793337;30;20112;-71
2021/09/07 08:20:31;;;;;;;8.15;4.15;;;24.10;45.40;;;;;;4793376;29;20062;-71
2021/09/07 08:23:00;;;;;;;8.13;3.75;;;24.20;45.40;;;;;;4792972;29;20055;-69
2021/09/07 08:25:27;;;;;;;8.52;4.60;;;24.20;45.40;;;;;;4791649;29;20567;-70
2021/09/07 08:27:54;;;;;;;6.28;4.43;;;24.20;45.40;;;;;;4791968;29;20090;-69
2021/09/07 08:30:21;;;;;;;5.47;3.85;;;24.20;45.40;;;;;;4791962;29;20137;-67
2021/09/07 08:32:48;;;;;;;5.70;3.38;;;24.20;45.30;;;;;;4791777;29;20109;-67
2021/09/07 08:35:15;;;;;;;7.30;4.00;;;24.30;45.30;;;;;;4791999;29;20505;-68
2021/09/07 08:37:43;;;;;;;8.20;4.18;;;24.30;45.20;;;;;;4791340;29;20055;-72
2021/09/07 08:40:11;;;;;;;5.78;4.00;;;24.30;45.10;;;;;;4791889;29;20139;-72
2021/09/07 08:42:39;;;;;;;5.32;3.63;;;24.30;45.10;;;;;;4791343;30;20460;-67
2021/09/07 08:45:11;;;;;;;4.88;3.72;;;24.30;45.20;;;;;;4791405;29;20059;-72
2021/09/07 08:47:38;;;;;;;8.32;4.32;;;24.30;45.30;;;;;;4790399;30;20082;-81
2021/09/07 08:50:06;;;;;;;8.68;4.20;;;24.30;45.20;;;;;;4791326;29;20055;-66
2021/09/07 08:52:34;;;;;;;9.68;3.75;;;24.30;45.10;;;;;;4792215;29;20085;-69
2021/09/07 08:55:03;;;;;;;4.85;3.92;;;24.40;45.20;;;;;;4791112;29;20087;-74
2021/09/07 08:57:30;;;;;;;5.97;3.83;;;24.40;45.10;;;;;;4791371;29;20059;-70
2021/09/07 09:00:00;;;;;;;4.32;3.47;;;24.40;45.00;;;;;;4791305;29;20075;-69
2021/09/07 09:02:28;;;;;;;7.18;4.07;;;24.40;44.90;;;;;;4790928;29;20426;-69
2021/09/07 09:04:57;;;;;;;4.15;3.28;;;24.50;44.90;;;;;;4790958;29;20077;-70
2021/09/07 09:07:28;;;;;;;7.25;3.70;;;24.40;44.80;;;;;;4791209;29;20138;-69
2021/09/07 09:09:57;;;;;;;6.82;3.67;;;24.40;44.60;;;;;;4791271;29;20172;-75
2021/09/07 09:12:35;;;;;;;4.93;3.42;;;24.50;44.50;;;;;;4791410;29;20055;-68
2021/09/07 09:15:11;;;;;;;3.88;3.40;;;24.50;44.30;;;;;;4791397;30;20051;-68
2021/09/07 09:17:38;;;;;;;5.05;3.45;;;24.50;44.20;;;;;;4791046;29;20116;-67
2021/09/07 09:20:13;;;;;;;4.38;3.60;;;24.50;44.00;;;;;;4790680;29;20555;-68
2021/09/07 09:22:56;;;;;;;8.20;4.10;;;24.50;43.90;;;;;;4791129;29;20078;-68
2021/09/07 09:25:38;;;;;;;4.47;3.40;;;24.60;43.80;;;;;;4791323;29;20147;-69
2021/09/07 09:28:08;;;;;;;4.72;3.35;;;24.50;43.60;;;;;;4791023;29;20055;-66
2021/09/07 09:30:39;;;;;;;;;;;24.60;43.40;;;;;;4791102;29;20146;-64
2021/09/07 09:33:09;;;;;;;4.65;3.75;;;24.60;42.80;;;;;;4790586;29;20411;-67
2021/09/07 09:35:45;;;;;;;4.35;3.80;;;24.60;42.70;;;;;;4790824;29;20135;-66
2021/09/07 09:38:13;;;;;;;4.60;3.30;;;24.70;42.50;;;;;;4790810;29;20089;-65
2021/09/07 09:40:40;;;;;;;8.80;4.10;;;24.70;41.90;;;;;;4790582;29;20521;-65
2021/09/07 09:43:28;;;;;;;3.53;3.20;;;24.80;41.40;;;;;;4790662;29;20061;-65
2021/09/07 09:45:56;;;;;;;4.82;3.33;;;24.70;40.30;;;;;;4789296;30;20057;-64
2021/09/07 09:48:26;;;;;;;5.00;3.95;;;24.80;40.00;;;;;;4790309;29;20104;-64
2021/09/07 09:50:57;;;;;;;4.85;3.80;;;24.80;39.80;;;;;;4790357;29;20588;-65
2021/09/07 09:53:26;;;;;;;4.43;3.33;;;24.80;39.90;;;;;;4789042;29;20090;-65
2021/09/07 09:55:54;;;;;;;6.18;4.05;;;24.80;40.00;;;;;;4777519;29;20062;-68
2021/09/07 09:58:23;;;;;;;5.32;3.75;;;24.80;39.70;;;;;;4785065;29;20175;-63
2021/09/07 10:00:51;;;;;;;6.22;3.65;;;24.90;39.00;;;;;;4782617;29;20109;-66
2021/09/07 10:03:20;;;;;;;7.07;4.05;;;24.90;38.80;;;;;;4775579;29;20051;-65
2021/09/07 10:05:47;;;;;;;5.63;4.03;;;24.90;39.50;;;;;;4773599;29;20141;-66
2021/09/07 10:08:16;;;;;;;5.95;3.72;;;24.90;39.60;;;;;;4784609;29;20690;-65
2021/09/07 10:10:57;;;;;;;5.43;3.72;;;24.90;39.90;;;;;;4788694;29;20065;-65
2021/09/07 10:13:27;;;;;;;5.57;3.50;;;25.00;40.10;;;;;;4775510;29;20066;-66
2021/09/07 10:15:59;;;;;;;8.00;3.47;;;25.00;40.00;;;;;;4779922;29;20510;-66
2021/09/07 10:18:44;;;;;;;4.07;3.15;;;25.00;39.70;;;;;;4779520;29;20065;-65
2021/09/07 10:24:58;;;;;;;4.75;3.58;;;25.00;38.70;;;;;;4770480;29;20055;-65
2021/09/07 10:28:05;;;;;;;5.30;3.45;;;25.10;38.70;;;;;;4781907;29;20116;-65
2021/09/07 10:30:55;;;;;;;3.67;3.20;;;25.10;38.50;;;;;;4780797;29;20056;-64
2021/09/07 10:34:00;;;;;;;6.07;3.28;;;25.00;38.30;;;;;;4777662;29;20057;-65
2021/09/07 10:36:31;;;;;;;4.50;3.47;;;25.00;38.50;;;;;;4788270;29;20055;-65
2021/09/07 10:39:01;;;;;;;5.47;3.60;;;25.00;38.40;;;;;;4782642;29;20134;-67
2021/09/07 10:41:44;;;;;;;6.25;3.70;;;25.00;38.20;;;;;;4783891;29;20123;-65
2021/09/07 10:44:28;;;;;;;5.38;4.28;;;25.00;38.00;;;;;;4774552;29;20055;-69
2021/09/07 10:47:01;;;;;;;5.15;3.80;;;25.00;37.70;;;;;;4787413;29;20079;-66
2021/09/07 10:49:52;;;;;;;5.53;3.40;;;25.00;37.50;;;;;;4789677;29;20095;-66
2021/09/07 10:52:40;;;;;;;4.45;3.83;;;25.10;37.40;;;;;;4780298;29;20065;-65
2021/09/07 10:55:16;;;;;;;3.78;3.35;;;25.10;37.40;;;;;;4774014;29;20510;-70
2021/09/07 10:57:46;;;;;;;4.35;3.90;;;25.10;37.30;;;;;;4781644;29;20170;-65
2021/09/07 11:00:30;;;;;;;12.10;4.37;;;25.20;37.40;;;;;;4781297;29;20047;-64
2021/09/07 11:03:25;;;;;;;6.57;3.67;;;25.20;37.30;;;;;;4770910;29;20206;-65
2021/09/07 11:05:53;;;;;;;12.60;3.90;;;25.20;37.20;;;;;;4779880;29;20051;-69
2021/09/07 11:08:38;;;;;;;3.95;3.55;;;25.20;37.10;;;;;;4782551;29;20150;-66
2021/09/07 11:11:22;;;;;;;10.48;4.47;;;25.20;36.90;;;;;;4779975;29;20094;-64
2021/09/07 11:13:49;;;;;;;5.32;3.58;;;25.20;36.80;;;;;;4771619;29;20132;-65
2021/09/07 11:16:18;;;;;;;5.05;3.33;;;25.20;37.00;;;;;;4784191;29;20415;-65
2021/09/07 11:18:47;;;;;;;4.80;3.83;;;25.20;37.20;;;;;;4786456;29;20055;-65
2021/09/07 11:21:14;;;;;;;4.32;3.60;;;25.20;37.10;;;;;;4783583;29;20484;-62
2021/09/07 11:23:41;;;;;;;6.97;3.92;;;25.20;36.70;;;;;;4773708;29;20134;-63
2021/09/07 11:26:11;;;;;;;5.65;4.03;;;25.20;36.80;;;;;;4781537;29;20106;-66
2021/09/07 11:28:44;;;;;;;6.95;3.58;;;25.20;36.90;;;;;;4784792;29;20134;-64
2021/09/07 11:31:12;;;;;;;5.40;3.95;;;25.20;36.80;;;;;;4782566;29;20482;-64
2021/09/07 11:33:41;;;;;;;6.07;4.20;;;25.20;36.80;;;;;;4776782;29;20063;-64
2021/09/07 11:36:18;;;;;;;5.53;3.75;;;25.20;37.00;;;;;;4782456;29;20054;-66
2021/09/07 11:38:50;;;;;;;4.43;3.80;;;25.20;37.20;;;;;;4779469;29;20134;-64
2021/09/07 11:41:21;;;;;;;4.97;3.60;;;25.20;37.30;;;;;;4783050;29;20083;-63
2021/09/07 11:43:50;;;;;;;5.45;3.85;;;25.20;37.60;;;;;;4772264;29;20613;-63
2021/09/07 11:46:27;;;;;;;8.60;3.92;;;25.20;37.70;;;;;;4781138;29;20115;-65
2021/09/07 11:49:03;;;;;;;5.57;3.90;;;25.20;37.40;;;;;;4781920;29;20061;-62
2021/09/07 11:51:33;;;;;;;5.45;3.78;;;25.20;37.10;;;;;;4778589;29;20126;-63
2021/09/07 11:54:08;;;;;;;10.55;4.32;;;25.30;37.40;;;;;;4784548;29;20047;-63
2021/09/07 11:56:38;;;;;;;5.97;3.90;;;25.30;37.40;;;;;;4779644;29;20167;-63
2021/09/07 11:59:12;;;;;;;4.40;3.83;;;25.30;37.40;;;;;;4780934;29;20138;-64
2021/09/07 12:01:48;;;;;;;4.28;3.88;;;25.30;37.70;;;;;;4777595;29;20101;-62
2021/09/07 12:04:18;;;;;;;4.05;3.60;;;25.30;37.90;;;;;;4770832;29;20043;-63
2021/09/07 12:06:53;;;;;;;10.02;4.38;;;25.30;38.00;;;;;;4783678;29;20099;-62
2021/09/07 12:09:34;;;;;;;5.07;3.90;;;25.30;38.10;;;;;;4783522;29;20065;-65
2021/09/07 12:12:12;;;;;;;4.85;4.00;;;25.30;38.00;;;;;;4777663;29;20039;-63
2021/09/07 12:14:45;;;;;;;5.93;3.90;;;25.30;38.00;;;;;;4784753;29;20089;-63
2021/09/07 12:17:17;;;;;;;5.88;3.80;;;25.30;37.50;;;;;;4792566;29;20142;-63
2021/09/07 12:19:48;;;;;;;6.40;3.45;;;25.30;37.40;;;;;;4792595;29;20088;-63
2021/09/07 12:22:25;;;;;;;5.13;3.60;;;25.40;37.50;;;;;;4792268;29;20051;-66
2021/09/07 12:25:08;;;;;;;5.82;3.40;;;25.40;37.50;;;;;;4793174;29;20506;-66
2021/09/07 12:27:44;;;;;;;5.15;4.28;;;25.40;37.10;;;;;;4792455;29;20051;-67
2021/09/07 12:30:28;;;;;;;9.27;4.30;;;25.50;37.60;;;;;;4778634;30;20119;-70
2021/09/07 12:33:06;;;;;;;5.30;3.95;;;25.60;37.60;;;;;;4792789;29;20094;-66
2021/09/07 12:35:42;;;;;;;5.57;3.85;;;25.70;37.50;;;;;;4792471;29;20139;-64
2021/09/07 12:38:18;;;;;;;13.13;3.97;;;25.80;37.20;;;;;;4795862;29;20051;-64
2021/09/07 12:40:48;;;;;;;4.28;3.30;;;25.80;36.80;;;;;;4796171;29;20086;-66
2021/09/07 12:43:18;;;;;;;5.57;3.42;;;25.90;36.60;;;;;;4796562;29;20090;-69
2021/09/07 12:45:49;;;;;;;8.65;3.85;;;25.90;36.90;;;;;;4796045;29;20094;-67
2021/09/07 12:48:16;;;;;;;8.00;4.50;;;26.00;37.10;;;;;;4796222;29;20051;-73
2021/09/07 12:50:45;;;;;;;4.97;4.10;;;26.00;37.10;;;;;;4796231;29;20138;-69
2021/09/07 12:53:13;;;;;;;4.07;3.58;;;26.10;36.70;;;;;;4796512;29;20107;-68
2021/09/07 12:56:00;;;;;;;4.18;3.78;;;26.10;36.40;;;;;;4791264;29;20055;-68
2021/09/07 12:58:29;;;;;;;6.35;3.58;;;26.10;36.10;;;;;;4791530;29;20057;-73
2021/09/07 13:00:58;;;;;;;4.47;3.67;;;26.10;35.80;;;;;;4791475;29;20059;-66
2021/09/07 13:03:25;;;;;;;4.47;3.80;;;26.10;36.00;;;;;;4790593;30;20360;-71
2021/09/07 13:05:53;;;;;;;4.85;3.65;;;26.10;36.00;;;;;;4791586;29;20099;-68
2021/09/07 13:08:20;;;;;;;7.00;3.78;;;26.10;35.60;;;;;;4791936;29;20059;-69
2021/09/07 13:10:48;;;;;;;6.53;3.90;;;26.10;35.40;;;;;;4788863;29;20043;-69
2021/09/07 13:13:54;;;;;;;5.57;3.28;;;26.10;35.30;;;;;;4776021;29;20099;-69